createdAt,value
2024-04-13T00:10:21.953Z,16.54
2024-04-13T00:10:53.920Z,16.57
2024-04-13T00:11:53.908Z,16.58
2024-04-13T00:13:28.418Z,16.61
2024-04-13T00:13:53.955Z,16.60
2024-04-13T00:14:53.927Z,16.62
2024-04-13T00:15:53.905Z,16.62
2024-04-13T00:16:54.024Z,16.64
2024-04-13T00:19:26.317Z,16.69
2024-04-13T00:19:58.277Z,16.71
2024-04-13T00:20:58.262Z,16.75
2024-04-13T00:21:58.248Z,16.78
2024-04-13T00:22:58.310Z,16.72
2024-04-13T00:23:58.313Z,16.68
2024-04-13T00:24:58.292Z,16.68
2024-04-13T00:25:58.263Z,16.61
2024-04-13T00:26:58.268Z,16.57
2024-04-13T00:27:58.278Z,16.45
2024-04-13T00:28:58.265Z,16.43
2024-04-13T00:29:58.278Z,16.28
2024-04-13T00:30:58.323Z,16.30
2024-04-13T00:31:58.268Z,16.31
2024-04-13T00:32:58.314Z,16.35
2024-04-13T00:33:58.292Z,16.37
2024-04-13T00:38:39.435Z,16.15
2024-04-13T00:39:11.402Z,16.17
2024-04-13T00:40:11.342Z,16.20
2024-04-13T00:41:12.104Z,16.05
2024-04-13T00:54:39.226Z,15.43
2024-04-13T00:54:59.183Z,15.43
2024-04-13T00:55:59.157Z,15.53
2024-04-13T00:56:59.196Z,15.62
2024-04-13T00:57:59.164Z,15.69
2024-04-13T00:58:59.148Z,15.74
2024-04-13T00:59:59.191Z,15.80
2024-04-13T01:00:59.179Z,15.86
2024-04-13T01:01:59.205Z,15.89
2024-04-13T01:02:59.243Z,15.96
2024-04-13T01:03:59.186Z,15.89
2024-04-13T01:04:59.147Z,15.92
2024-04-13T01:05:59.229Z,15.68
2024-04-13T01:19:26.107Z,15.91
2024-04-13T01:19:47.018Z,15.89
2024-04-13T01:20:47.010Z,15.86
2024-04-13T01:21:46.997Z,15.77
2024-04-13T01:22:47.034Z,15.75
2024-04-13T01:23:47.023Z,15.72
2024-04-13T01:24:47.036Z,15.71
2024-04-13T01:25:47.021Z,15.74
2024-04-13T01:26:47.007Z,15.75
2024-04-13T01:27:47.016Z,15.78
2024-04-13T01:28:47.004Z,15.78
2024-04-13T01:29:47.024Z,15.84
2024-04-13T01:30:47.017Z,15.85
2024-04-13T01:31:47.015Z,15.86
2024-04-13T01:32:47.256Z,15.89
2024-04-13T01:33:47.132Z,15.88
2024-04-13T01:34:47.017Z,15.78
2024-04-13T01:35:47.028Z,15.68
2024-04-13T01:36:47.051Z,15.68
2024-04-13T01:37:47.052Z,15.68
2024-04-13T01:38:47.025Z,15.71
2024-04-13T01:39:47.147Z,15.74
2024-04-13T01:40:47.046Z,15.74
2024-04-13T01:41:47.017Z,15.75
2024-04-13T01:42:47.114Z,15.75
2024-04-13T01:43:47.024Z,15.75
2024-04-13T01:44:47.031Z,15.69
2024-04-13T01:45:47.036Z,15.57
2024-04-13T01:46:47.048Z,15.47
2024-04-13T01:47:47.168Z,15.27
2024-04-13T01:54:36.962Z,15.18
2024-04-13T01:55:08.861Z,15.20
2024-04-13T01:56:08.804Z,15.27
2024-04-13T01:57:08.920Z,15.37
2024-04-13T01:58:08.889Z,15.41
2024-04-13T01:59:08.791Z,15.44
2024-04-13T02:00:08.858Z,15.48
2024-04-13T02:01:08.858Z,15.50
2024-04-13T02:02:08.848Z,15.51
2024-04-13T02:03:08.846Z,15.55
2024-04-13T02:04:08.934Z,15.58
2024-04-13T02:05:08.801Z,15.58
2024-04-13T02:06:08.855Z,15.62
2024-04-13T02:07:08.809Z,15.65
2024-04-13T02:08:08.818Z,15.68
2024-04-13T02:09:08.824Z,15.69
2024-04-13T02:10:08.807Z,15.74
2024-04-13T02:11:08.918Z,15.71
2024-04-13T02:12:08.845Z,15.69
2024-04-13T02:13:08.825Z,15.69
2024-04-13T02:14:08.830Z,15.69
2024-04-13T02:15:08.874Z,15.65
2024-04-13T02:16:08.842Z,15.62
2024-04-13T02:17:08.815Z,15.55
2024-04-13T02:18:08.925Z,15.40
2024-04-13T02:19:08.918Z,15.14
2024-04-13T02:20:08.835Z,15.19
2024-04-13T02:21:08.870Z,15.20
2024-04-13T02:27:03.230Z,14.78
2024-04-13T02:27:26.468Z,14.85
2024-04-13T02:28:26.217Z,14.89
2024-04-13T02:29:26.225Z,14.93
2024-04-13T02:30:26.296Z,14.93
2024-04-13T02:31:26.238Z,14.98
2024-04-13T02:32:26.290Z,15.00
2024-04-13T02:34:03.353Z,15.03
2024-04-13T02:34:26.271Z,15.05
2024-04-13T02:35:26.233Z,14.98
2024-04-13T02:36:26.279Z,14.86
2024-04-13T02:37:26.261Z,14.89
2024-04-13T02:38:26.248Z,14.88
2024-04-13T02:39:26.250Z,14.92
2024-04-13T02:40:26.249Z,14.92
2024-04-13T02:44:11.964Z,15.02
2024-04-13T02:44:34.977Z,14.99
2024-04-13T02:45:35.028Z,15.00
2024-04-13T02:46:34.943Z,15.02
2024-04-13T02:49:07.778Z,15.07
2024-04-13T02:49:39.354Z,15.06
2024-04-13T02:50:39.336Z,15.07
2024-04-13T02:51:39.373Z,15.07
2024-04-13T02:52:39.325Z,15.03
2024-04-13T02:53:39.323Z,15.05
2024-04-13T02:54:39.382Z,14.99
2024-04-13T02:55:39.324Z,14.99
2024-04-13T02:56:39.326Z,14.98
2024-04-13T02:57:39.382Z,15.00
2024-04-13T02:58:39.329Z,15.00
2024-04-13T02:59:39.330Z,15.00
2024-04-13T03:00:39.472Z,15.05
2024-04-13T03:05:21.944Z,15.02
2024-04-13T03:05:52.597Z,14.74
2024-04-13T03:06:52.658Z,14.33
2024-04-13T03:07:52.646Z,14.16
2024-04-13T03:08:52.724Z,14.12
2024-04-13T03:09:52.821Z,14.22
2024-04-13T03:10:52.844Z,14.29
2024-04-13T03:12:00.132Z,14.30
2024-04-13T03:13:00.114Z,14.36
2024-04-13T03:14:00.119Z,14.44
2024-04-13T03:15:00.176Z,14.50
2024-04-13T03:16:00.123Z,14.54
2024-04-13T03:17:00.186Z,14.56
2024-04-13T03:18:00.174Z,14.58
2024-04-13T03:19:00.155Z,14.64
2024-04-13T03:20:00.174Z,14.67
2024-04-13T03:21:00.122Z,14.68
2024-04-13T03:22:00.146Z,14.61
2024-04-13T03:23:00.149Z,14.50
2024-04-13T03:24:00.151Z,14.50
2024-04-13T03:25:00.171Z,14.40
2024-04-13T03:26:00.121Z,14.30
2024-04-13T03:27:00.134Z,14.22
2024-04-13T03:28:00.134Z,14.17
2024-04-13T03:29:00.135Z,14.08
2024-04-13T03:30:00.222Z,14.11
2024-04-13T03:31:00.267Z,14.17
2024-04-13T03:32:00.282Z,14.23
2024-04-13T03:33:00.351Z,14.27
2024-04-13T03:34:00.395Z,14.30
2024-04-13T03:35:00.416Z,14.39
2024-04-13T03:36:00.478Z,14.44
2024-04-13T03:37:00.587Z,14.44
2024-04-13T03:38:00.576Z,14.50
2024-04-13T03:39:00.623Z,14.54
2024-04-13T03:42:36.530Z,14.65
2024-04-13T03:43:09.349Z,14.64
2024-04-13T03:44:09.369Z,14.64
2024-04-13T03:45:09.392Z,14.65
2024-04-13T03:46:09.359Z,14.64
2024-04-13T03:47:09.369Z,14.64
2024-04-13T03:48:09.422Z,14.63
2024-04-13T03:49:09.383Z,14.63
2024-04-13T03:50:09.361Z,14.61
2024-04-13T03:51:09.396Z,14.60
2024-04-13T03:52:09.396Z,14.54
2024-04-13T03:53:09.383Z,14.52
2024-04-13T03:56:45.101Z,14.51
2024-04-13T03:57:18.113Z,14.50
2024-04-13T03:58:18.051Z,14.54
2024-04-13T03:59:18.080Z,14.52
2024-04-13T04:00:18.227Z,14.54
2024-04-13T04:01:18.107Z,14.56
2024-04-13T04:03:59.560Z,14.54
2024-04-13T04:04:22.481Z,14.52
2024-04-13T04:05:22.423Z,14.47
2024-04-13T04:09:05.691Z,13.98
2024-04-13T04:11:02.539Z,13.86
2024-04-13T04:11:35.500Z,13.92
2024-04-13T04:12:35.554Z,13.95
2024-04-13T04:13:35.478Z,13.89
2024-04-13T04:14:36.155Z,13.86
2024-04-13T04:15:35.679Z,13.86
2024-04-13T04:16:35.446Z,13.89
2024-04-13T04:17:35.536Z,13.95
2024-04-13T04:18:35.582Z,13.96
2024-04-13T04:19:35.455Z,14.02
2024-04-13T04:20:35.506Z,14.05
2024-04-13T04:21:35.490Z,14.08
2024-04-13T04:22:35.465Z,14.02
2024-04-13T04:23:35.507Z,14.05
2024-04-13T04:24:35.501Z,14.11
2024-04-13T04:25:35.467Z,14.09
2024-04-13T04:26:35.485Z,14.13
2024-04-13T04:27:35.653Z,14.22
2024-04-13T04:28:35.464Z,14.20
2024-04-13T04:29:35.524Z,14.22
2024-04-13T04:30:35.466Z,14.22
2024-04-13T04:31:35.474Z,14.23
2024-04-13T04:32:35.503Z,14.24
2024-04-13T04:33:35.512Z,14.26
2024-04-13T04:34:35.477Z,14.29
2024-04-13T04:35:35.577Z,14.30
2024-04-13T04:36:35.569Z,14.33
2024-04-13T04:37:35.517Z,14.33
2024-04-13T04:38:35.497Z,14.27
2024-04-13T04:39:35.476Z,14.29
2024-04-13T04:40:35.516Z,14.29
2024-04-13T04:41:35.510Z,14.30
2024-04-13T04:42:35.591Z,14.29
2024-04-13T04:43:35.584Z,14.29
2024-04-13T04:44:35.691Z,14.26
2024-04-13T04:45:35.722Z,14.24
2024-04-13T04:48:09.891Z,14.19
2024-04-13T04:48:40.314Z,14.09
2024-04-13T04:49:40.092Z,13.96
2024-04-13T04:50:40.091Z,13.96
2024-04-13T04:51:40.137Z,13.98
2024-04-13T04:52:42.497Z,13.99
2024-04-13T04:53:40.081Z,14.01
2024-04-13T04:54:40.195Z,14.04
2024-04-13T04:55:40.089Z,14.05
2024-04-13T04:59:15.817Z,14.11
2024-04-13T05:02:24.573Z,14.11
2024-04-13T05:02:57.490Z,14.12
2024-04-13T05:03:57.536Z,14.11
2024-04-13T05:04:57.474Z,14.08
2024-04-13T05:05:57.496Z,14.06
2024-04-13T05:06:57.487Z,14.05
2024-04-13T05:15:00.576Z,14.01
2024-04-13T05:15:23.609Z,13.96
2024-04-13T05:16:23.590Z,13.99
2024-04-13T05:17:23.581Z,13.95
2024-04-13T05:18:23.771Z,13.90
2024-04-13T05:19:23.639Z,13.90
2024-04-13T05:20:23.568Z,13.93
2024-04-13T05:21:23.699Z,13.96
2024-04-13T05:22:23.590Z,13.95
2024-04-13T05:23:23.567Z,13.99
2024-04-13T05:24:23.674Z,13.96
2024-04-13T05:33:25.314Z,14.22
2024-04-13T05:33:54.172Z,14.19
2024-04-13T05:34:54.013Z,14.22
2024-04-13T05:35:54.042Z,14.22
2024-04-13T05:39:29.921Z,14.24
2024-04-13T05:40:02.765Z,14.26
2024-04-13T05:41:02.728Z,14.29
2024-04-13T05:42:02.733Z,14.30
2024-04-13T05:43:02.762Z,14.33
2024-04-13T05:44:02.723Z,14.33
2024-04-13T05:45:02.720Z,14.33
2024-04-13T05:46:02.735Z,14.36
2024-04-13T05:47:02.731Z,14.34
2024-04-13T05:48:02.772Z,14.30
2024-04-13T05:49:02.742Z,14.16
2024-04-13T05:50:02.739Z,14.22
2024-04-13T05:51:02.751Z,14.22
2024-04-13T05:52:02.748Z,14.26
2024-04-13T05:55:38.788Z,13.93
2024-04-13T05:56:11.437Z,13.75
2024-04-13T05:57:11.563Z,13.55
2024-04-13T05:58:14.068Z,13.60
2024-04-13T05:59:11.423Z,13.58
2024-04-13T06:00:11.452Z,13.64
2024-04-13T06:01:11.521Z,13.68
2024-04-13T06:02:11.448Z,13.72
2024-04-13T06:03:11.587Z,13.82
2024-04-13T06:04:11.511Z,13.89
2024-04-13T06:05:11.459Z,13.93
2024-04-13T06:06:11.510Z,13.89
2024-04-13T06:07:11.443Z,13.89
2024-04-13T06:08:11.462Z,13.88
2024-04-13T06:09:11.499Z,13.89
2024-04-13T06:10:11.457Z,13.95
2024-04-13T06:11:11.468Z,14.04
2024-04-13T06:12:11.504Z,14.13
2024-04-13T06:13:11.466Z,14.17
2024-04-13T06:14:11.451Z,14.29
2024-04-13T06:15:11.527Z,14.33
2024-04-13T06:16:11.498Z,14.41
2024-04-13T06:17:11.458Z,14.51
2024-04-13T06:18:11.535Z,14.57
2024-04-13T06:19:11.451Z,14.61
2024-04-13T06:32:26.342Z,14.86
2024-04-13T06:32:59.365Z,14.92
2024-04-13T06:33:59.408Z,14.93
2024-04-13T06:34:59.277Z,14.86
2024-04-13T06:35:59.300Z,14.88
2024-04-13T06:36:59.284Z,14.88
2024-04-13T06:37:59.298Z,14.88
2024-04-13T06:38:59.303Z,14.86
2024-04-13T06:39:59.315Z,14.84
2024-04-13T06:40:59.310Z,14.86
2024-04-13T06:41:59.338Z,14.84
2024-04-13T06:42:59.296Z,14.86
2024-04-13T06:43:59.297Z,14.91
2024-04-13T06:44:59.308Z,14.98
2024-04-13T06:45:59.339Z,14.98
2024-04-13T06:46:59.315Z,14.93
2024-04-13T06:47:59.381Z,15.03
2024-04-13T06:53:53.740Z,14.98
2024-04-13T06:54:16.825Z,15.00
2024-04-13T06:55:16.707Z,15.03
2024-04-13T06:56:16.718Z,15.02
2024-04-13T06:57:16.772Z,15.02
2024-04-13T07:01:06.135Z,15.16
2024-04-13T07:01:36.632Z,15.20
2024-04-13T07:02:36.598Z,15.25
2024-04-13T07:03:36.654Z,15.22
2024-04-13T07:04:36.628Z,15.22
2024-04-13T07:05:36.534Z,15.12
2024-04-13T07:06:36.585Z,15.14
2024-04-13T07:07:36.635Z,15.09
2024-04-13T07:08:43.828Z,15.06
2024-04-13T07:09:37.616Z,15.00
2024-04-13T07:10:36.540Z,15.09
2024-04-13T07:11:36.503Z,14.99
2024-04-13T07:12:36.511Z,15.12
2024-04-13T07:13:36.534Z,15.19
2024-04-13T07:14:36.558Z,15.23
2024-04-13T07:15:36.650Z,15.13
2024-04-13T07:16:36.532Z,15.14
2024-04-13T07:17:36.654Z,15.29
2024-04-13T07:18:36.633Z,15.26
2024-04-13T07:19:36.588Z,15.34
2024-04-13T07:20:36.527Z,15.41
2024-04-13T07:21:36.590Z,15.46
2024-04-13T07:22:36.659Z,15.50
2024-04-13T07:23:36.692Z,15.44
2024-04-13T07:24:36.733Z,15.41
2024-04-13T07:25:36.747Z,15.51
2024-04-13T07:26:36.810Z,15.50
2024-04-13T07:27:36.865Z,15.50
2024-04-13T07:28:36.867Z,15.40
2024-04-13T07:29:36.898Z,15.48
2024-04-13T07:30:36.914Z,15.40
2024-04-13T07:31:36.952Z,15.55
2024-04-13T07:32:37.085Z,15.65
2024-04-13T07:33:37.044Z,15.64
2024-04-13T07:34:36.996Z,15.71
2024-04-13T07:35:36.998Z,15.81
2024-04-13T07:45:52.204Z,15.80
2024-04-13T07:46:14.881Z,15.91
2024-04-13T07:47:14.867Z,15.93
2024-04-13T07:48:15.036Z,16.00
2024-04-13T07:51:54.623Z,16.12
2024-04-13T07:52:23.578Z,16.17
2024-04-13T07:53:23.551Z,16.10
2024-04-13T07:54:23.580Z,16.12
2024-04-13T07:55:23.591Z,15.96
2024-04-13T07:56:23.557Z,16.17
2024-04-13T07:57:23.610Z,16.26
2024-04-13T07:58:23.562Z,16.21
2024-04-13T07:59:23.586Z,16.26
2024-04-13T08:00:23.619Z,16.05
2024-04-13T08:01:23.593Z,16.16
2024-04-13T08:02:23.579Z,16.23
2024-04-13T08:03:23.681Z,16.20
2024-04-13T08:04:23.754Z,16.34
2024-04-13T08:11:31.441Z,16.48
2024-04-13T08:12:04.348Z,16.54
2024-04-13T08:13:04.376Z,16.45
2024-04-13T08:14:04.374Z,16.35
2024-04-13T08:15:04.370Z,16.40
2024-04-13T08:16:04.374Z,16.50
2024-04-13T08:17:04.435Z,16.52
2024-04-13T08:18:04.415Z,16.28
2024-04-13T08:26:07.506Z,16.50
2024-04-13T08:26:30.459Z,16.55
2024-04-13T08:27:32.787Z,16.57
2024-04-13T08:28:30.492Z,16.68
2024-04-13T08:29:30.452Z,16.78
2024-04-13T08:30:30.467Z,16.74
2024-04-13T08:31:30.497Z,16.78
2024-04-13T08:36:20.556Z,16.89
2024-04-13T08:36:43.593Z,16.89
2024-04-13T08:37:43.521Z,16.93
2024-04-13T08:38:43.500Z,17.03
2024-04-13T08:39:43.676Z,16.96
2024-04-13T08:40:43.505Z,17.09
2024-04-13T08:41:43.499Z,17.19
2024-04-13T08:42:43.555Z,17.23
2024-04-13T08:43:43.487Z,17.23
2024-04-13T08:44:43.512Z,17.23
2024-04-13T08:45:43.583Z,17.30
2024-04-13T08:46:43.507Z,17.30
2024-04-13T08:47:43.603Z,17.33
2024-04-13T08:48:43.652Z,17.34
2024-04-13T08:49:43.509Z,17.34
2024-04-13T08:50:43.540Z,17.33
2024-04-13T08:51:43.643Z,17.13
2024-04-13T08:52:43.517Z,17.17
2024-04-13T08:53:43.519Z,17.27
2024-04-13T08:54:43.585Z,17.31
2024-04-13T08:55:43.529Z,17.29
2024-04-13T08:56:43.554Z,17.35
2024-04-13T08:57:43.599Z,17.44
2024-04-13T08:58:43.571Z,17.50
2024-04-13T08:59:43.532Z,17.55
2024-04-13T09:00:48.640Z,17.55
2024-04-13T09:01:50.125Z,17.55
2024-04-13T09:02:43.549Z,17.51
2024-04-13T09:07:33.015Z,17.64
2024-04-13T09:07:56.626Z,17.68
2024-04-13T09:08:56.595Z,17.81
2024-04-13T09:09:56.576Z,17.85
2024-04-13T09:10:56.614Z,17.93
2024-04-13T09:12:00.469Z,17.93
2024-04-13T09:21:01.573Z,17.88
2024-04-13T09:21:27.066Z,17.92
2024-04-13T09:22:27.016Z,17.84
2024-04-13T09:23:27.037Z,17.93
2024-04-13T09:24:27.071Z,18.10
2024-04-13T09:25:27.040Z,17.93
2024-04-13T09:26:27.023Z,18.03
2024-04-13T09:27:27.045Z,18.13
2024-04-13T09:28:27.038Z,18.12
2024-04-13T09:29:27.082Z,18.19
2024-04-13T09:30:27.085Z,18.06
2024-04-13T09:31:27.034Z,18.10
2024-04-13T09:32:27.098Z,18.06
2024-04-13T09:33:27.111Z,18.16
2024-04-13T09:34:27.045Z,18.17
2024-04-13T09:51:04.953Z,18.85
2024-04-13T09:51:27.993Z,18.89
2024-04-13T09:52:27.910Z,18.89
2024-04-13T09:53:27.962Z,18.83
2024-04-13T09:54:28.172Z,18.92
2024-04-13T09:55:27.918Z,18.99
2024-04-13T10:00:11.989Z,19.10
2024-04-13T10:00:41.189Z,19.10
2024-04-13T10:01:41.098Z,19.17
2024-04-13T10:02:40.992Z,19.26
2024-04-13T10:03:41.111Z,19.24
2024-04-13T10:04:40.982Z,19.28
2024-04-13T10:05:40.983Z,19.35
2024-04-13T10:06:41.021Z,19.33
2024-04-13T10:07:40.991Z,19.41
2024-04-13T10:08:40.993Z,19.38
2024-04-13T10:09:41.043Z,19.44
2024-04-13T10:10:40.981Z,19.55
2024-04-13T10:11:40.985Z,19.51
2024-04-13T10:18:39.836Z,19.78
2024-04-13T10:19:02.781Z,19.78
2024-04-13T10:20:02.722Z,19.80
2024-04-13T10:21:02.727Z,19.83
2024-04-13T10:22:03.927Z,19.85
2024-04-13T10:23:02.772Z,19.95
2024-04-13T10:24:02.732Z,19.96
2024-04-13T10:25:02.721Z,20.05
2024-04-13T10:26:02.734Z,20.07
2024-04-13T10:27:02.739Z,20.05
2024-04-13T10:28:02.771Z,20.14
2024-04-13T10:29:02.766Z,20.19
2024-04-13T10:30:02.752Z,20.24
2024-04-13T11:12:24.658Z,21.37
2024-04-13T11:12:57.650Z,21.44
2024-04-13T11:13:57.650Z,21.40
2024-04-13T11:14:57.599Z,21.31
2024-04-13T11:15:57.621Z,21.30
2024-04-13T11:16:57.639Z,21.45
2024-04-13T11:17:57.719Z,21.51
2024-04-13T11:18:57.723Z,21.47
2024-04-13T11:19:57.600Z,21.54
2024-04-13T11:20:57.608Z,21.59
2024-04-13T11:21:57.644Z,21.61
2024-04-13T11:22:57.593Z,21.64
2024-04-13T11:23:57.603Z,21.78
2024-04-13T11:24:57.607Z,21.83
2024-04-13T11:25:57.617Z,21.92
2024-04-13T11:26:57.621Z,22.03
2024-04-13T11:27:57.665Z,22.01
2024-04-13T11:28:57.612Z,22.01
2024-04-13T11:29:57.615Z,22.13
2024-04-13T11:30:57.888Z,22.17
2024-04-13T11:31:57.664Z,22.14
2024-04-13T11:32:58.516Z,22.20
2024-04-13T11:33:57.694Z,22.28
2024-04-13T11:34:57.659Z,22.34
2024-04-13T11:35:57.647Z,22.24
2024-04-13T11:36:57.721Z,22.34
2024-04-13T11:37:57.628Z,22.45
2024-04-13T11:38:57.632Z,22.45
2024-04-13T11:39:57.656Z,22.43
2024-04-13T11:49:02.706Z,22.65
2024-04-13T11:49:30.046Z,22.76
2024-04-13T11:50:28.083Z,22.71
2024-04-13T11:51:28.119Z,22.65
2024-04-13T11:52:29.478Z,22.79
2024-04-13T11:53:28.073Z,22.76
2024-04-13T11:54:28.174Z,22.85
2024-04-13T11:55:28.083Z,22.88
2024-04-13T11:56:28.091Z,22.97
2024-04-13T11:57:28.159Z,23.03
2024-04-13T11:58:28.096Z,23.09
2024-04-13T11:59:28.095Z,23.11
2024-04-13T12:00:28.130Z,23.07
2024-04-13T12:01:28.118Z,23.10
2024-04-13T12:02:28.129Z,23.11
2024-04-13T12:03:28.173Z,23.13
2024-04-13T12:04:28.137Z,23.10
2024-04-13T12:05:28.089Z,23.23
2024-04-13T12:06:28.125Z,23.23
2024-04-13T12:07:28.108Z,23.27
2024-04-13T12:08:28.110Z,23.34
2024-04-13T12:09:28.198Z,23.31
2024-04-13T12:13:13.813Z,23.44
2024-04-13T12:13:36.847Z,23.51
2024-04-13T12:14:46.659Z,23.59
2024-04-13T12:15:37.859Z,23.48
2024-04-13T12:16:45.065Z,23.37
2024-04-13T12:17:45.141Z,23.44
2024-04-13T12:18:45.279Z,23.52
2024-04-13T12:19:45.120Z,23.59
2024-04-13T12:28:55.856Z,23.69
2024-04-13T12:29:25.863Z,23.80
2024-04-13T12:30:25.875Z,23.83
2024-04-13T12:31:25.843Z,23.77
2024-04-13T12:44:50.701Z,24.39
2024-04-13T12:45:13.677Z,24.48
2024-04-13T12:46:13.658Z,24.50
2024-04-13T12:47:13.696Z,24.37
2024-04-13T12:48:13.760Z,24.17
2024-04-13T12:49:13.704Z,24.27
2024-04-13T12:50:13.661Z,24.35
2024-04-13T12:51:13.671Z,24.41
2024-04-13T12:52:13.683Z,24.54
2024-04-13T12:53:13.694Z,24.54
2024-04-13T12:54:13.696Z,24.56
2024-04-13T12:55:13.667Z,24.62
2024-04-13T12:56:13.663Z,24.68
2024-04-13T12:57:13.673Z,24.72
2024-04-13T12:58:13.682Z,24.85
2024-04-13T13:01:53.430Z,24.99
2024-04-13T13:02:22.444Z,25.11
2024-04-13T13:03:22.454Z,25.10
2024-04-13T13:04:22.397Z,25.21
2024-04-13T13:09:18.981Z,25.33
2024-04-13T13:09:47.988Z,25.42
2024-04-13T13:10:47.938Z,25.28
2024-04-13T13:11:52.928Z,25.33
2024-04-13T13:12:47.969Z,25.30
2024-04-13T13:13:47.913Z,25.41
2024-04-13T13:14:47.920Z,25.51
2024-04-13T13:15:47.961Z,25.55
2024-04-13T13:16:47.947Z,25.64
2024-04-13T13:17:47.945Z,25.64
2024-04-13T13:18:47.964Z,25.65
2024-04-13T13:21:23.333Z,25.69
2024-04-13T13:21:52.344Z,25.66
2024-04-13T13:22:52.244Z,25.73
2024-04-13T13:23:52.248Z,25.80
2024-04-13T13:26:33.597Z,25.93
2024-04-13T13:26:56.608Z,26.06
2024-04-13T13:27:56.640Z,25.87
2024-04-13T13:28:58.943Z,26.04
2024-04-13T13:29:56.646Z,26.01
2024-04-13T13:30:56.750Z,26.06
2024-04-13T13:31:56.763Z,26.06
2024-04-13T13:32:56.840Z,26.14
2024-04-13T13:33:56.909Z,25.97
2024-04-13T13:34:56.875Z,26.00
2024-04-13T13:35:56.858Z,25.95
2024-04-13T13:36:57.029Z,25.93
2024-04-13T13:37:56.965Z,26.08
2024-04-13T13:38:57.007Z,26.19
2024-04-13T13:39:57.116Z,26.26
2024-04-13T13:40:57.095Z,26.35
2024-04-13T13:41:57.117Z,26.42
2024-04-13T13:42:57.147Z,26.45
2024-04-13T13:43:57.180Z,26.55
2024-04-13T13:44:57.210Z,26.58
2024-04-13T13:45:57.237Z,26.65
2024-04-13T13:46:57.267Z,26.63
2024-04-13T13:47:57.350Z,26.54
2024-04-13T13:48:57.456Z,26.58
2024-04-13T13:49:57.359Z,26.58
2024-04-13T13:50:57.403Z,26.54
2024-04-13T13:51:57.510Z,26.60
2024-04-13T13:52:57.516Z,26.74
2024-04-13T13:53:57.514Z,26.72
2024-04-13T13:54:57.554Z,26.83
2024-04-13T13:55:57.646Z,26.90
2024-04-13T13:56:57.668Z,26.86
2024-04-13T13:57:57.708Z,26.92
2024-04-13T13:58:59.094Z,26.96
2024-04-13T13:59:57.824Z,26.93
2024-04-13T14:00:58.034Z,26.90
2024-04-13T14:01:57.982Z,27.06
2024-04-13T14:02:58.027Z,26.96
2024-04-13T14:03:58.067Z,27.06
2024-04-13T14:04:59.734Z,27.06
2024-04-13T14:17:12.585Z,27.37
2024-04-13T14:17:41.626Z,27.41
2024-04-13T14:18:41.605Z,27.55
2024-04-13T14:19:41.523Z,27.51
2024-04-13T14:20:41.563Z,27.58
2024-04-13T14:21:41.543Z,27.56
2024-04-13T14:22:41.539Z,27.54
2024-04-13T14:23:41.545Z,27.62
2024-04-13T14:24:41.551Z,27.72
2024-04-13T14:25:41.575Z,27.76
2024-04-13T14:26:41.530Z,27.86
2024-04-13T14:27:41.570Z,27.95
2024-04-13T14:28:41.536Z,27.93
2024-04-13T14:29:41.557Z,27.86
2024-04-13T14:30:41.585Z,27.62
2024-04-13T14:31:41.562Z,27.63
2024-04-13T14:32:41.638Z,27.82
2024-04-13T14:33:41.611Z,27.83
2024-04-13T14:34:41.554Z,27.93
2024-04-13T14:35:41.540Z,27.95
2024-04-13T14:36:41.951Z,28.07
2024-04-13T14:37:41.558Z,28.14
2024-04-13T14:38:41.548Z,28.04
2024-04-13T14:39:41.674Z,28.13
2024-04-13T14:40:41.559Z,28.21
2024-04-13T14:41:41.556Z,28.08
2024-04-13T14:42:41.626Z,28.08
2024-04-13T14:43:41.591Z,28.08
2024-04-13T14:44:41.590Z,28.27
2024-04-13T14:45:41.571Z,28.18
2024-04-13T14:46:41.559Z,28.21
2024-04-13T14:47:41.590Z,28.30
2024-04-13T14:48:41.715Z,28.45
2024-04-13T14:49:41.586Z,28.31
2024-04-13T14:50:41.564Z,28.16
2024-04-13T14:51:41.607Z,27.96
2024-04-13T14:52:41.561Z,28.04
2024-04-13T14:53:41.562Z,28.10
2024-04-13T14:54:41.718Z,27.96
2024-04-13T14:55:41.633Z,27.62
2024-04-13T14:56:41.642Z,27.59
2024-04-13T14:57:41.718Z,27.62
2024-04-13T14:58:41.749Z,27.58
2024-04-13T14:59:41.752Z,27.69
2024-04-13T15:00:41.813Z,27.78
2024-04-13T15:01:41.867Z,27.82
2024-04-13T15:02:41.882Z,27.71
2024-04-13T15:03:41.932Z,27.75
2024-04-13T15:04:42.000Z,27.76
2024-04-13T15:09:26.161Z,27.71
2024-04-13T15:09:55.011Z,27.80
2024-04-13T15:20:02.407Z,27.63
2024-04-13T15:20:30.037Z,27.58
2024-04-13T15:21:30.138Z,27.33
2024-04-13T15:22:30.102Z,27.48
2024-04-13T15:23:30.164Z,27.56
2024-04-13T15:24:30.150Z,27.47
2024-04-13T15:25:30.202Z,27.62
2024-04-13T15:26:30.214Z,27.63
2024-04-13T15:27:30.310Z,27.51
2024-04-13T15:28:30.320Z,27.42
2024-04-13T15:29:30.329Z,27.38
2024-04-13T15:30:30.414Z,27.51
2024-04-13T15:31:30.456Z,27.59
2024-04-13T15:32:30.530Z,27.62
2024-04-13T15:33:30.571Z,27.78
2024-04-13T15:34:30.565Z,27.88
2024-04-13T15:35:30.579Z,27.93
2024-04-13T15:36:30.608Z,28.03
2024-04-13T15:37:30.619Z,28.10
2024-04-13T15:50:45.488Z,27.89
2024-04-13T15:51:18.520Z,27.97
2024-04-13T15:52:18.474Z,27.86
2024-04-13T15:53:18.472Z,27.95
2024-04-13T15:54:18.530Z,28.01
2024-04-13T15:55:18.463Z,27.97
2024-04-13T15:56:18.469Z,27.68
2024-04-13T15:57:18.545Z,27.80
2024-04-13T15:58:18.481Z,27.92
2024-04-13T15:59:18.473Z,27.90
2024-04-13T16:00:18.553Z,27.90
2024-04-13T16:01:18.576Z,27.96
2024-04-13T16:02:18.542Z,27.95
2024-04-13T16:03:18.558Z,28.01
2024-04-13T16:04:18.560Z,28.14
2024-04-13T16:05:18.501Z,28.21
2024-04-13T16:06:18.496Z,28.28
2024-04-13T16:07:18.477Z,28.33
2024-04-13T16:08:18.480Z,28.33
2024-04-13T16:09:18.594Z,28.41
2024-04-13T16:12:55.758Z,28.44
2024-04-13T16:18:11.591Z,28.54
2024-04-13T16:18:44.596Z,28.54
2024-04-13T16:19:44.573Z,28.51
2024-04-13T16:20:44.569Z,28.41
2024-04-13T16:21:44.637Z,28.25
2024-04-13T16:22:44.585Z,27.93
2024-04-13T16:23:44.570Z,28.08
2024-04-13T16:24:45.400Z,27.96
2024-04-13T16:25:44.664Z,27.96
2024-04-13T16:26:44.733Z,27.78
2024-04-13T16:27:44.794Z,27.71
2024-04-13T16:28:44.780Z,27.31
2024-04-13T16:29:44.860Z,26.96
2024-04-13T16:30:44.893Z,26.79
2024-04-13T16:31:44.930Z,26.47
2024-04-13T16:32:45.089Z,26.31
2024-04-13T16:33:45.074Z,26.30
2024-04-13T16:34:45.109Z,26.31
2024-04-13T16:39:25.292Z,26.34
2024-04-13T16:39:58.223Z,26.21
2024-04-13T16:40:58.177Z,26.23
2024-04-13T16:41:58.188Z,26.21
2024-04-13T16:42:58.226Z,26.24
2024-04-13T16:43:58.181Z,26.28
2024-04-13T16:44:58.181Z,26.45
2024-04-13T16:56:07.338Z,27.26
2024-04-13T16:56:37.346Z,27.33
2024-04-13T16:57:37.391Z,27.31
2024-04-13T16:58:37.292Z,27.31
2024-04-13T16:59:37.315Z,27.36
2024-04-13T17:00:37.366Z,27.40
2024-04-13T17:01:37.332Z,27.41
2024-04-13T17:02:37.401Z,27.38
2024-04-13T17:03:37.364Z,27.41
2024-04-13T17:04:37.317Z,27.30
2024-04-13T17:05:37.312Z,27.36
2024-04-13T17:06:37.370Z,27.34
2024-04-13T17:07:37.325Z,27.34
2024-04-13T17:08:37.333Z,27.34
2024-04-13T17:09:37.336Z,27.36
2024-04-13T17:10:37.332Z,27.33
2024-04-13T17:14:18.529Z,27.37
2024-04-13T17:14:46.193Z,27.38
2024-04-13T17:15:46.274Z,27.37
2024-04-13T17:16:46.231Z,27.37
2024-04-13T17:17:48.370Z,27.21
2024-04-13T17:18:46.580Z,27.15
2024-04-13T17:23:29.651Z,26.71
2024-04-13T17:23:59.608Z,26.81
2024-04-13T17:24:59.628Z,26.87
2024-04-13T17:25:59.610Z,26.89
2024-04-13T17:26:59.629Z,26.93
2024-04-13T17:27:59.609Z,26.96
2024-04-13T17:28:59.600Z,26.96
2024-04-13T17:29:59.602Z,27.02
2024-04-13T17:30:59.677Z,27.02
2024-04-13T17:31:59.633Z,27.03
2024-04-13T17:32:59.627Z,27.03
2024-04-13T17:33:59.680Z,27.02
2024-04-13T17:34:59.627Z,27.03
2024-04-13T17:40:44.067Z,26.85
2024-04-13T17:41:17.017Z,26.83
2024-04-13T17:42:17.044Z,26.81
2024-04-13T17:43:17.027Z,26.79
2024-04-13T17:44:16.998Z,26.75
2024-04-13T17:45:17.021Z,26.75
2024-04-13T17:46:17.017Z,26.72
2024-04-13T17:56:24.346Z,26.26
2024-04-13T17:56:52.050Z,26.26
2024-04-13T17:57:52.229Z,26.12
2024-04-13T17:58:52.114Z,25.59
2024-04-13T17:59:52.145Z,25.58
2024-04-13T18:00:52.220Z,25.40
2024-04-13T18:01:52.212Z,25.41
2024-04-13T18:02:52.282Z,25.42
2024-04-13T18:03:52.439Z,25.44
2024-04-13T18:04:52.449Z,25.49
2024-04-13T18:05:52.366Z,25.45
2024-04-13T18:06:52.500Z,25.49